This is the latest recevied weather packets stored in our database for station/object KF0WJA. If no packets are shown the sender has not sent any weather packets the latest 10 day(s).
| Time | Temp. | Humidity | Pressure | Rain* | Wind** | Luminosity | Snow |
|---|---|---|---|---|---|---|---|
| 1787426170 | 29.44° C | 58% | 1021.4 hPa | 0 mm | - | 688 W/m² | - |
| 1787425866 | 29.44° C | 58% | 1021.3 hPa | 0 mm | - | 685 W/m² | - |
| 1787425563 | 28.89° C | 60% | 1021.4 hPa | 0 mm | - | 679 W/m² | - |
| 1787425257 | 28.89° C | 59% | 1021.4 hPa | 0 mm | - | 573 W/m² | - |
| 1787424957 | 28.89° C | 60% | 1021.3 hPa | 0 mm | - | 681 W/m² | - |
| 1787424656 | 28.33° C | 62% | 1021.4 hPa | 0 mm | - | 609 W/m² | - |
| 1787424352 | 27.78° C | 63% | 1021.4 hPa | 0 mm | - | 573 W/m² | - |
| 1787424052 | 27.78° C | 63% | 1021.4 hPa | 0 mm | - | 563 W/m² | - |
| 1787423748 | 27.78° C | 63% | 1021.4 hPa | 0 mm | - | 483 W/m² | - |
| 1787423445 | 27.22° C | 63% | 1021.4 hPa | 0 mm | - | 432 W/m² | - |
| 1787423141 | 26.67° C | 66% | 1021.4 hPa | 0 mm | - | 453 W/m² | - |
| 1787422836 | 26.11° C | 69% | 1021.4 hPa | 0 mm | - | 414 W/m² | - |
| 1787422533 | 26.11° C | 70% | 1021.1 hPa | 0 mm | - | 360 W/m² | - |
| 1787422232 | 26.11° C | 70% | 1021 hPa | 0 mm | - | 331 W/m² | - |
| 1787421929 | 26.11° C | 69% | 1021.3 hPa | 0 mm | - | 355 W/m² | - |
| 1787421625 | 25.56° C | 70% | 1021 hPa | 0 mm | - | 337 W/m² | - |
| 1787421320 | 25.56° C | 69% | 1020.9 hPa | 0 mm | - | 301 W/m² | - |
| 1787421015 | 25.56° C | 68% | 1021 hPa | 0 mm | - | 304 W/m² | - |
| 1787420710 | 25.56° C | 69% | 1021.4 hPa | 0 mm | - | 293 W/m² | - |
| 1787420407 | 26.11° C | 68% | 1021.5 hPa | 0 mm | - | 311 W/m² | - |
| 1787420103 | 26.11° C | 68% | 1021.6 hPa | 0 mm | - | 356 W/m² | - |
| 1787419799 | 26.67° C | 66% | 1021.9 hPa | 0 mm | - | 353 W/m² | - |
| 1787419494 | 27.22° C | 65% | 1022.3 hPa | 0 mm | - | 546 W/m² | - |
| 1787419189 | 26.67° C | 67% | 1022.7 hPa | 0 mm | - | 792 W/m² | - |
| 1787418886 | 26.67° C | 69% | 1023 hPa | 0 mm | - | 802 W/m² | - |
* Rain latest hour (hover to see other rain measurements)
** Current wind speed in m/s (hover to see current wind gust speed)